sensor_id;sensor_type;location;lat;lon;timestamp;P1;durP1;ratioP1;P2;durP2;ratioP2
53781;SDS011;39692;53.114;7.060;2023-03-21T00:01:37;21.73;;;13.50;;
53781;SDS011;39692;53.114;7.060;2023-03-21T00:04:04;21.65;;;12.55;;
53781;SDS011;39692;53.114;7.060;2023-03-21T00:06:30;24.40;;;13.43;;
53781;SDS011;39692;53.114;7.060;2023-03-21T00:08:56;24.00;;;12.40;;
53781;SDS011;39692;53.114;7.060;2023-03-21T00:11:22;23.63;;;13.27;;
53781;SDS011;39692;53.114;7.060;2023-03-21T00:13:48;24.10;;;13.02;;
53781;SDS011;39692;53.114;7.060;2023-03-21T00:16:15;19.88;;;12.07;;
53781;SDS011;39692;53.114;7.060;2023-03-21T00:18:42;22.85;;;13.02;;
53781;SDS011;39692;53.114;7.060;2023-03-21T00:21:12;19.60;;;12.23;;
53781;SDS011;39692;53.114;7.060;2023-03-21T00:23:39;22.63;;;13.95;;
53781;SDS011;39692;53.114;7.060;2023-03-21T00:26:05;19.77;;;11.30;;
53781;SDS011;39692;53.114;7.060;2023-03-21T00:28:34;24.45;;;12.80;;
53781;SDS011;39692;53.114;7.060;2023-03-21T00:31:00;20.67;;;12.10;;
53781;SDS011;39692;53.114;7.060;2023-03-21T00:33:26;22.80;;;12.50;;
53781;SDS011;39692;53.114;7.060;2023-03-21T00:35:52;20.30;;;13.15;;
53781;SDS011;39692;53.114;7.060;2023-03-21T00:38:19;22.58;;;12.95;;
53781;SDS011;39692;53.114;7.060;2023-03-21T00:40:45;23.52;;;12.45;;
53781;SDS011;39692;53.114;7.060;2023-03-21T00:43:12;20.77;;;12.43;;
53781;SDS011;39692;53.114;7.060;2023-03-21T00:45:43;25.77;;;14.98;;
53781;SDS011;39692;53.114;7.060;2023-03-21T00:48:10;21.95;;;13.48;;
53781;SDS011;39692;53.114;7.060;2023-03-21T00:50:36;21.92;;;12.50;;
53781;SDS011;39692;53.114;7.060;2023-03-21T00:53:03;24.17;;;12.38;;
53781;SDS011;39692;53.114;7.060;2023-03-21T00:55:29;22.73;;;12.25;;
53781;SDS011;39692;53.114;7.060;2023-03-21T00:57:55;25.63;;;13.77;;
53781;SDS011;39692;53.114;7.060;2023-03-21T01:00:21;23.63;;;12.65;;
53781;SDS011;39692;53.114;7.060;2023-03-21T01:02:47;22.85;;;13.23;;
53781;SDS011;39692;53.114;7.060;2023-03-21T01:05:26;23.48;;;12.45;;
53781;SDS011;39692;53.114;7.060;2023-03-21T01:08:12;24.83;;;13.20;;
53781;SDS011;39692;53.114;7.060;2023-03-21T01:10:39;23.98;;;11.85;;
53781;SDS011;39692;53.114;7.060;2023-03-21T01:13:05;20.02;;;11.60;;
53781;SDS011;39692;53.114;7.060;2023-03-21T01:15:31;20.38;;;12.18;;
53781;SDS011;39692;53.114;7.060;2023-03-21T01:17:58;23.00;;;12.32;;
53781;SDS011;39692;53.114;7.060;2023-03-21T01:20:24;29.90;;;15.63;;
53781;SDS011;39692;53.114;7.060;2023-03-21T01:22:50;25.20;;;11.57;;
53781;SDS011;39692;53.114;7.060;2023-03-21T01:25:16;27.30;;;12.65;;
53781;SDS011;39692;53.114;7.060;2023-03-21T01:27:42;30.45;;;14.60;;
53781;SDS011;39692;53.114;7.060;2023-03-21T01:30:09;25.65;;;13.45;;
53781;SDS011;39692;53.114;7.060;2023-03-21T01:32:35;26.00;;;14.32;;
53781;SDS011;39692;53.114;7.060;2023-03-21T01:35:01;27.60;;;13.95;;
53781;SDS011;39692;53.114;7.060;2023-03-21T01:37:28;31.52;;;14.00;;
53781;SDS011;39692;53.114;7.060;2023-03-21T01:39:54;28.27;;;12.02;;
53781;SDS011;39692;53.114;7.060;2023-03-21T01:42:20;23.27;;;12.30;;
53781;SDS011;39692;53.114;7.060;2023-03-21T01:44:56;28.83;;;14.75;;
53781;SDS011;39692;53.114;7.060;2023-03-21T01:47:23;27.45;;;12.98;;
53781;SDS011;39692;53.114;7.060;2023-03-21T01:49:50;23.58;;;11.32;;
53781;SDS011;39692;53.114;7.060;2023-03-21T01:52:19;21.52;;;11.30;;
53781;SDS011;39692;53.114;7.060;2023-03-21T01:54:48;24.88;;;11.80;;
53781;SDS011;39692;53.114;7.060;2023-03-21T01:57:20;21.30;;;11.13;;
53781;SDS011;39692;53.114;7.060;2023-03-21T01:59:48;21.55;;;11.00;;
53781;SDS011;39692;53.114;7.060;2023-03-21T02:02:16;27.30;;;12.55;;
53781;SDS011;39692;53.114;7.060;2023-03-21T02:04:44;23.83;;;11.10;;
53781;SDS011;39692;53.114;7.060;2023-03-21T02:07:15;26.35;;;12.07;;
53781;SDS011;39692;53.114;7.060;2023-03-21T02:09:46;24.30;;;9.90;;
53781;SDS011;39692;53.114;7.060;2023-03-21T02:12:13;22.60;;;10.82;;
53781;SDS011;39692;53.114;7.060;2023-03-21T02:14:40;24.02;;;11.55;;
53781;SDS011;39692;53.114;7.060;2023-03-21T02:22:50;22.52;;;10.75;;
53781;SDS011;39692;53.114;7.060;2023-03-21T02:27:53;24.50;;;11.18;;
53781;SDS011;39692;53.114;7.060;2023-03-21T02:37:51;20.42;;;9.82;;
53781;SDS011;39692;53.114;7.060;2023-03-21T02:40:21;19.33;;;9.65;;
53781;SDS011;39692;53.114;7.060;2023-03-21T02:45:56;21.08;;;10.93;;
53781;SDS011;39692;53.114;7.060;2023-03-21T02:48:28;19.77;;;9.65;;
53781;SDS011;39692;53.114;7.060;2023-03-21T02:50:58;19.15;;;9.40;;
53781;SDS011;39692;53.114;7.060;2023-03-21T02:53:26;19.08;;;9.90;;
53781;SDS011;39692;53.114;7.060;2023-03-21T02:55:53;17.83;;;9.30;;
53781;SDS011;39692;53.114;7.060;2023-03-21T02:58:20;21.35;;;9.93;;
53781;SDS011;39692;53.114;7.060;2023-03-21T03:00:47;20.15;;;10.32;;
53781;SDS011;39692;53.114;7.060;2023-03-21T03:03:14;25.45;;;9.65;;
53781;SDS011;39692;53.114;7.060;2023-03-21T03:05:43;18.88;;;9.40;;
53781;SDS011;39692;53.114;7.060;2023-03-21T03:10:42;20.08;;;10.18;;
53781;SDS011;39692;53.114;7.060;2023-03-21T03:18:20;21.08;;;9.60;;
53781;SDS011;39692;53.114;7.060;2023-03-21T03:21:01;24.23;;;11.18;;
53781;SDS011;39692;53.114;7.060;2023-03-21T03:23:44;22.75;;;10.98;;
53781;SDS011;39692;53.114;7.060;2023-03-21T03:26:18;24.15;;;10.70;;
53781;SDS011;39692;53.114;7.060;2023-03-21T03:28:50;20.88;;;10.45;;
53781;SDS011;39692;53.114;7.060;2023-03-21T03:31:19;17.85;;;8.68;;
53781;SDS011;39692;53.114;7.060;2023-03-21T03:33:49;21.77;;;9.98;;
53781;SDS011;39692;53.114;7.060;2023-03-21T03:36:17;18.05;;;9.52;;
53781;SDS011;39692;53.114;7.060;2023-03-21T03:38:43;17.15;;;9.27;;
53781;SDS011;39692;53.114;7.060;2023-03-21T03:41:11;21.65;;;9.77;;
53781;SDS011;39692;53.114;7.060;2023-03-21T03:43:45;22.70;;;10.50;;
53781;SDS011;39692;53.114;7.060;2023-03-21T03:46:17;15.05;;;8.13;;
53781;SDS011;39692;53.114;7.060;2023-03-21T03:49:07;16.70;;;8.93;;
53781;SDS011;39692;53.114;7.060;2023-03-21T03:54:23;18.73;;;7.55;;
53781;SDS011;39692;53.114;7.060;2023-03-21T03:56:51;16.25;;;8.35;;
53781;SDS011;39692;53.114;7.060;2023-03-21T03:59:17;17.80;;;9.40;;
53781;SDS011;39692;53.114;7.060;2023-03-21T04:01:46;19.92;;;9.73;;
53781;SDS011;39692;53.114;7.060;2023-03-21T04:04:13;16.38;;;8.88;;
53781;SDS011;39692;53.114;7.060;2023-03-21T04:06:40;16.30;;;8.65;;
53781;SDS011;39692;53.114;7.060;2023-03-21T04:09:06;18.52;;;9.07;;
53781;SDS011;39692;53.114;7.060;2023-03-21T04:11:33;20.63;;;9.68;;
53781;SDS011;39692;53.114;7.060;2023-03-21T04:13:59;18.85;;;10.10;;
53781;SDS011;39692;53.114;7.060;2023-03-21T04:16:25;18.70;;;7.97;;
53781;SDS011;39692;53.114;7.060;2023-03-21T04:18:52;20.05;;;10.50;;
53781;SDS011;39692;53.114;7.060;2023-03-21T04:21:18;19.17;;;8.25;;
53781;SDS011;39692;53.114;7.060;2023-03-21T04:23:45;17.95;;;9.07;;
53781;SDS011;39692;53.114;7.060;2023-03-21T04:26:11;19.23;;;9.32;;
53781;SDS011;39692;53.114;7.060;2023-03-21T04:28:37;18.60;;;9.75;;
53781;SDS011;39692;53.114;7.060;2023-03-21T04:31:05;17.92;;;8.95;;
53781;SDS011;39692;53.114;7.060;2023-03-21T04:33:31;18.20;;;9.10;;
53781;SDS011;39692;53.114;7.060;2023-03-21T04:36:02;15.65;;;7.20;;
53781;SDS011;39692;53.114;7.060;2023-03-21T04:38:30;15.88;;;7.32;;
53781;SDS011;39692;53.114;7.060;2023-03-21T04:40:57;15.30;;;7.95;;
53781;SDS011;39692;53.114;7.060;2023-03-21T04:43:24;15.32;;;6.82;;
53781;SDS011;39692;53.114;7.060;2023-03-21T04:45:50;17.17;;;8.05;;
53781;SDS011;39692;53.114;7.060;2023-03-21T04:48:16;18.17;;;7.75;;
53781;SDS011;39692;53.114;7.060;2023-03-21T04:50:44;21.13;;;7.80;;
53781;SDS011;39692;53.114;7.060;2023-03-21T04:53:10;15.50;;;8.50;;
53781;SDS011;39692;53.114;7.060;2023-03-21T04:55:36;14.35;;;7.68;;
53781;SDS011;39692;53.114;7.060;2023-03-21T04:58:02;16.88;;;8.30;;
53781;SDS011;39692;53.114;7.060;2023-03-21T05:00:29;14.43;;;6.93;;
53781;SDS011;39692;53.114;7.060;2023-03-21T05:02:56;15.90;;;7.15;;
53781;SDS011;39692;53.114;7.060;2023-03-21T05:05:23;11.32;;;6.30;;
53781;SDS011;39692;53.114;7.060;2023-03-21T05:07:49;15.32;;;7.68;;
53781;SDS011;39692;53.114;7.060;2023-03-21T05:10:15;11.95;;;6.57;;
53781;SDS011;39692;53.114;7.060;2023-03-21T05:12:41;12.93;;;7.22;;
53781;SDS011;39692;53.114;7.060;2023-03-21T05:15:07;14.57;;;7.32;;
53781;SDS011;39692;53.114;7.060;2023-03-21T05:17:34;15.43;;;7.55;;
53781;SDS011;39692;53.114;7.060;2023-03-21T05:20:00;15.43;;;6.90;;
53781;SDS011;39692;53.114;7.060;2023-03-21T05:22:28;14.38;;;7.57;;
53781;SDS011;39692;53.114;7.060;2023-03-21T05:25:05;16.48;;;7.97;;
53781;SDS011;39692;53.114;7.060;2023-03-21T05:27:32;13.15;;;7.85;;
53781;SDS011;39692;53.114;7.060;2023-03-21T05:30:00;14.25;;;6.78;;
53781;SDS011;39692;53.114;7.060;2023-03-21T05:32:26;16.05;;;8.07;;
53781;SDS011;39692;53.114;7.060;2023-03-21T05:34:52;14.25;;;6.95;;
53781;SDS011;39692;53.114;7.060;2023-03-21T05:37:18;17.58;;;8.48;;
53781;SDS011;39692;53.114;7.060;2023-03-21T05:39:44;12.65;;;7.18;;
53781;SDS011;39692;53.114;7.060;2023-03-21T05:42:10;14.07;;;7.20;;
53781;SDS011;39692;53.114;7.060;2023-03-21T05:44:36;12.70;;;7.35;;
53781;SDS011;39692;53.114;7.060;2023-03-21T05:47:04;12.40;;;6.47;;
53781;SDS011;39692;53.114;7.060;2023-03-21T05:49:30;15.13;;;7.28;;
53781;SDS011;39692;53.114;7.060;2023-03-21T05:51:57;13.00;;;7.18;;
53781;SDS011;39692;53.114;7.060;2023-03-21T05:54:23;13.63;;;7.65;;
53781;SDS011;39692;53.114;7.060;2023-03-21T05:56:49;16.75;;;7.95;;
53781;SDS011;39692;53.114;7.060;2023-03-21T05:59:15;15.38;;;7.13;;
53781;SDS011;39692;53.114;7.060;2023-03-21T06:01:41;13.15;;;6.88;;
53781;SDS011;39692;53.114;7.060;2023-03-21T06:04:07;15.95;;;8.65;;
53781;SDS011;39692;53.114;7.060;2023-03-21T06:06:33;14.27;;;8.32;;
53781;SDS011;39692;53.114;7.060;2023-03-21T06:08:59;14.13;;;7.57;;
53781;SDS011;39692;53.114;7.060;2023-03-21T06:11:26;12.85;;;7.88;;
53781;SDS011;39692;53.114;7.060;2023-03-21T06:13:53;13.02;;;7.55;;
53781;SDS011;39692;53.114;7.060;2023-03-21T06:16:19;14.07;;;7.97;;
53781;SDS011;39692;53.114;7.060;2023-03-21T06:18:45;17.95;;;9.35;;
53781;SDS011;39692;53.114;7.060;2023-03-21T06:21:11;14.15;;;7.90;;
53781;SDS011;39692;53.114;7.060;2023-03-21T06:23:37;16.98;;;8.20;;
53781;SDS011;39692;53.114;7.060;2023-03-21T06:26:04;13.77;;;7.80;;
53781;SDS011;39692;53.114;7.060;2023-03-21T06:28:30;14.73;;;8.90;;
53781;SDS011;39692;53.114;7.060;2023-03-21T06:30:56;15.32;;;7.43;;
53781;SDS011;39692;53.114;7.060;2023-03-21T06:33:22;19.38;;;9.55;;
53781;SDS011;39692;53.114;7.060;2023-03-21T06:35:52;15.65;;;9.98;;
53781;SDS011;39692;53.114;7.060;2023-03-21T06:38:18;16.98;;;9.93;;
53781;SDS011;39692;53.114;7.060;2023-03-21T06:40:45;19.60;;;10.82;;
53781;SDS011;39692;53.114;7.060;2023-03-21T06:43:12;18.65;;;10.02;;
53781;SDS011;39692;53.114;7.060;2023-03-21T06:45:38;19.05;;;10.85;;
53781;SDS011;39692;53.114;7.060;2023-03-21T06:48:04;18.88;;;10.00;;
53781;SDS011;39692;53.114;7.060;2023-03-21T06:50:30;21.23;;;9.70;;
53781;SDS011;39692;53.114;7.060;2023-03-21T06:52:56;19.33;;;9.77;;
53781;SDS011;39692;53.114;7.060;2023-03-21T06:55:23;15.27;;;8.60;;
53781;SDS011;39692;53.114;7.060;2023-03-21T06:57:54;17.52;;;9.95;;
53781;SDS011;39692;53.114;7.060;2023-03-21T07:00:20;19.58;;;9.68;;
53781;SDS011;39692;53.114;7.060;2023-03-21T07:02:47;15.98;;;9.02;;
53781;SDS011;39692;53.114;7.060;2023-03-21T07:05:13;18.50;;;10.45;;
53781;SDS011;39692;53.114;7.060;2023-03-21T07:07:39;18.40;;;10.25;;
53781;SDS011;39692;53.114;7.060;2023-03-21T07:10:06;18.70;;;9.88;;
53781;SDS011;39692;53.114;7.060;2023-03-21T07:12:32;19.05;;;10.52;;
53781;SDS011;39692;53.114;7.060;2023-03-21T07:15:00;16.88;;;10.02;;
53781;SDS011;39692;53.114;7.060;2023-03-21T07:17:26;17.42;;;10.10;;
53781;SDS011;39692;53.114;7.060;2023-03-21T07:19:52;19.45;;;9.82;;
53781;SDS011;39692;53.114;7.060;2023-03-21T07:22:18;16.58;;;9.07;;
53781;SDS011;39692;53.114;7.060;2023-03-21T07:24:44;16.30;;;9.15;;
53781;SDS011;39692;53.114;7.060;2023-03-21T07:27:14;16.67;;;9.82;;
53781;SDS011;39692;53.114;7.060;2023-03-21T07:29:40;13.55;;;8.48;;
53781;SDS011;39692;53.114;7.060;2023-03-21T07:32:08;17.13;;;9.52;;
53781;SDS011;39692;53.114;7.060;2023-03-21T07:34:34;14.68;;;7.40;;
53781;SDS011;39692;53.114;7.060;2023-03-21T07:37:00;15.52;;;8.50;;
53781;SDS011;39692;53.114;7.060;2023-03-21T07:39:26;15.80;;;9.65;;
53781;SDS011;39692;53.114;7.060;2023-03-21T07:41:53;16.83;;;8.52;;
53781;SDS011;39692;53.114;7.060;2023-03-21T07:44:22;13.23;;;7.47;;
53781;SDS011;39692;53.114;7.060;2023-03-21T07:46:49;12.63;;;7.53;;
53781;SDS011;39692;53.114;7.060;2023-03-21T07:49:15;13.27;;;8.75;;
53781;SDS011;39692;53.114;7.060;2023-03-21T07:51:41;12.30;;;7.60;;
53781;SDS011;39692;53.114;7.060;2023-03-21T07:54:07;15.73;;;8.32;;
53781;SDS011;39692;53.114;7.060;2023-03-21T07:56:33;14.38;;;7.97;;
53781;SDS011;39692;53.114;7.060;2023-03-21T07:59:00;14.25;;;8.32;;
53781;SDS011;39692;53.114;7.060;2023-03-21T08:01:26;14.30;;;7.05;;
53781;SDS011;39692;53.114;7.060;2023-03-21T08:03:52;11.00;;;6.65;;
53781;SDS011;39692;53.114;7.060;2023-03-21T08:06:19;13.15;;;6.93;;
53781;SDS011;39692;53.114;7.060;2023-03-21T08:08:45;14.13;;;6.95;;
53781;SDS011;39692;53.114;7.060;2023-03-21T08:11:11;11.40;;;5.85;;
53781;SDS011;39692;53.114;7.060;2023-03-21T08:13:38;10.63;;;5.97;;
53781;SDS011;39692;53.114;7.060;2023-03-21T08:16:04;11.95;;;6.93;;
53781;SDS011;39692;53.114;7.060;2023-03-21T08:18:30;9.82;;;5.20;;
53781;SDS011;39692;53.114;7.060;2023-03-21T08:20:56;12.13;;;6.00;;
53781;SDS011;39692;53.114;7.060;2023-03-21T08:23:23;10.07;;;5.53;;
53781;SDS011;39692;53.114;7.060;2023-03-21T08:25:49;11.57;;;5.55;;
53781;SDS011;39692;53.114;7.060;2023-03-21T08:28:16;9.48;;;5.18;;
53781;SDS011;39692;53.114;7.060;2023-03-21T08:30:42;8.18;;;4.85;;
53781;SDS011;39692;53.114;7.060;2023-03-21T08:33:09;8.75;;;5.07;;
53781;SDS011;39692;53.114;7.060;2023-03-21T08:35:35;8.55;;;4.93;;
53781;SDS011;39692;53.114;7.060;2023-03-21T08:38:02;7.72;;;5.43;;
53781;SDS011;39692;53.114;7.060;2023-03-21T08:40:28;8.15;;;5.20;;
53781;SDS011;39692;53.114;7.060;2023-03-21T08:42:54;8.98;;;5.57;;
53781;SDS011;39692;53.114;7.060;2023-03-21T08:45:20;8.93;;;5.18;;
53781;SDS011;39692;53.114;7.060;2023-03-21T08:47:47;9.43;;;5.93;;
53781;SDS011;39692;53.114;7.060;2023-03-21T08:50:15;8.23;;;5.03;;
53781;SDS011;39692;53.114;7.060;2023-03-21T08:52:42;8.82;;;5.80;;
53781;SDS011;39692;53.114;7.060;2023-03-21T08:55:08;9.75;;;6.15;;
53781;SDS011;39692;53.114;7.060;2023-03-21T08:57:34;10.93;;;5.80;;
53781;SDS011;39692;53.114;7.060;2023-03-21T09:00:01;13.05;;;5.32;;
53781;SDS011;39692;53.114;7.060;2023-03-21T09:02:31;9.43;;;5.18;;
53781;SDS011;39692;53.114;7.060;2023-03-21T09:04:57;8.90;;;5.47;;
53781;SDS011;39692;53.114;7.060;2023-03-21T09:07:23;10.55;;;6.20;;
53781;SDS011;39692;53.114;7.060;2023-03-21T09:09:50;11.02;;;6.68;;
53781;SDS011;39692;53.114;7.060;2023-03-21T09:12:17;12.32;;;7.13;;
53781;SDS011;39692;53.114;7.060;2023-03-21T09:14:43;9.10;;;5.80;;
53781;SDS011;39692;53.114;7.060;2023-03-21T09:17:10;10.48;;;6.45;;
53781;SDS011;39692;53.114;7.060;2023-03-21T09:19:36;11.02;;;6.97;;
53781;SDS011;39692;53.114;7.060;2023-03-21T09:22:02;7.40;;;4.97;;
53781;SDS011;39692;53.114;7.060;2023-03-21T09:24:29;10.05;;;5.93;;
53781;SDS011;39692;53.114;7.060;2023-03-21T09:26:55;12.38;;;6.38;;
53781;SDS011;39692;53.114;7.060;2023-03-21T09:29:21;10.27;;;6.13;;
53781;SDS011;39692;53.114;7.060;2023-03-21T09:31:47;9.98;;;6.07;;
53781;SDS011;39692;53.114;7.060;2023-03-21T09:34:14;10.18;;;5.78;;
53781;SDS011;39692;53.114;7.060;2023-03-21T09:36:40;10.07;;;6.15;;
53781;SDS011;39692;53.114;7.060;2023-03-21T09:39:08;8.80;;;6.28;;
53781;SDS011;39692;53.114;7.060;2023-03-21T09:41:57;11.25;;;6.03;;
53781;SDS011;39692;53.114;7.060;2023-03-21T09:44:24;10.05;;;5.82;;
53781;SDS011;39692;53.114;7.060;2023-03-21T09:51:57;10.57;;;5.93;;
53781;SDS011;39692;53.114;7.060;2023-03-21T09:54:35;10.98;;;5.88;;
53781;SDS011;39692;53.114;7.060;2023-03-21T09:57:21;11.82;;;6.85;;
53781;SDS011;39692;53.114;7.060;2023-03-21T09:59:49;10.23;;;5.45;;
53781;SDS011;39692;53.114;7.060;2023-03-21T10:02:28;10.07;;;6.68;;
53781;SDS011;39692;53.114;7.060;2023-03-21T10:05:01;11.13;;;6.40;;
53781;SDS011;39692;53.114;7.060;2023-03-21T10:07:33;12.40;;;7.78;;
53781;SDS011;39692;53.114;7.060;2023-03-21T10:10:03;12.75;;;6.97;;
53781;SDS011;39692;53.114;7.060;2023-03-21T10:12:30;14.32;;;7.95;;
53781;SDS011;39692;53.114;7.060;2023-03-21T10:14:57;16.20;;;8.43;;
53781;SDS011;39692;53.114;7.060;2023-03-21T10:17:32;14.20;;;9.52;;
53781;SDS011;39692;53.114;7.060;2023-03-21T10:20:20;16.90;;;8.98;;
53781;SDS011;39692;53.114;7.060;2023-03-21T10:22:45;14.35;;;9.15;;
53781;SDS011;39692;53.114;7.060;2023-03-21T10:25:14;14.55;;;8.57;;
53781;SDS011;39692;53.114;7.060;2023-03-21T10:27:41;11.85;;;7.70;;
53781;SDS011;39692;53.114;7.060;2023-03-21T10:30:07;14.45;;;9.32;;
53781;SDS011;39692;53.114;7.060;2023-03-21T10:32:34;16.83;;;9.32;;
53781;SDS011;39692;53.114;7.060;2023-03-21T10:35:01;13.70;;;7.93;;
53781;SDS011;39692;53.114;7.060;2023-03-21T10:37:29;13.45;;;8.35;;
53781;SDS011;39692;53.114;7.060;2023-03-21T10:39:56;15.40;;;8.30;;
53781;SDS011;39692;53.114;7.060;2023-03-21T10:42:24;19.30;;;10.05;;
53781;SDS011;39692;53.114;7.060;2023-03-21T10:44:51;13.98;;;8.70;;
53781;SDS011;39692;53.114;7.060;2023-03-21T10:47:18;16.63;;;10.35;;
53781;SDS011;39692;53.114;7.060;2023-03-21T10:49:45;15.70;;;9.73;;
53781;SDS011;39692;53.114;7.060;2023-03-21T10:52:12;19.83;;;10.00;;
53781;SDS011;39692;53.114;7.060;2023-03-21T10:54:39;14.60;;;9.55;;
53781;SDS011;39692;53.114;7.060;2023-03-21T10:57:10;17.05;;;9.80;;
53781;SDS011;39692;53.114;7.060;2023-03-21T10:59:38;17.30;;;10.02;;
53781;SDS011;39692;53.114;7.060;2023-03-21T11:02:05;19.98;;;9.68;;
53781;SDS011;39692;53.114;7.060;2023-03-21T11:04:35;18.67;;;9.55;;
53781;SDS011;39692;53.114;7.060;2023-03-21T11:07:02;18.92;;;9.30;;
53781;SDS011;39692;53.114;7.060;2023-03-21T11:09:44;16.55;;;9.07;;
53781;SDS011;39692;53.114;7.060;2023-03-21T11:12:12;13.38;;;8.32;;
53781;SDS011;39692;53.114;7.060;2023-03-21T11:14:43;14.88;;;9.10;;
53781;SDS011;39692;53.114;7.060;2023-03-21T11:19:59;14.60;;;7.15;;
53781;SDS011;39692;53.114;7.060;2023-03-21T11:22:29;19.33;;;9.52;;
53781;SDS011;39692;53.114;7.060;2023-03-21T11:25:03;15.23;;;8.23;;
53781;SDS011;39692;53.114;7.060;2023-03-21T11:27:30;13.95;;;8.40;;
53781;SDS011;39692;53.114;7.060;2023-03-21T11:29:57;16.25;;;7.85;;
53781;SDS011;39692;53.114;7.060;2023-03-21T11:32:33;13.82;;;8.45;;
53781;SDS011;39692;53.114;7.060;2023-03-21T11:35:14;15.45;;;8.32;;
53781;SDS011;39692;53.114;7.060;2023-03-21T11:37:44;13.30;;;8.55;;
53781;SDS011;39692;53.114;7.060;2023-03-21T11:42:45;16.05;;;9.57;;
53781;SDS011;39692;53.114;7.060;2023-03-21T11:45:17;13.50;;;7.43;;
53781;SDS011;39692;53.114;7.060;2023-03-21T11:47:43;16.20;;;8.90;;
53781;SDS011;39692;53.114;7.060;2023-03-21T11:50:14;16.33;;;8.18;;
53781;SDS011;39692;53.114;7.060;2023-03-21T11:52:42;15.35;;;9.00;;
53781;SDS011;39692;53.114;7.060;2023-03-21T12:05:32;17.88;;;8.70;;
53781;SDS011;39692;53.114;7.060;2023-03-21T12:08:08;14.70;;;9.55;;
53781;SDS011;39692;53.114;7.060;2023-03-21T12:10:43;15.07;;;8.48;;
53781;SDS011;39692;53.114;7.060;2023-03-21T12:13:18;12.38;;;7.93;;
53781;SDS011;39692;53.114;7.060;2023-03-21T12:21:05;11.85;;;7.47;;
53781;SDS011;39692;53.114;7.060;2023-03-21T12:36:18;14.73;;;6.57;;
53781;SDS011;39692;53.114;7.060;2023-03-21T12:38:55;10.23;;;6.50;;
53781;SDS011;39692;53.114;7.060;2023-03-21T12:44:12;17.60;;;9.13;;
53781;SDS011;39692;53.114;7.060;2023-03-21T12:46:43;10.80;;;7.00;;
53781;SDS011;39692;53.114;7.060;2023-03-21T12:51:46;9.48;;;5.72;;
53781;SDS011;39692;53.114;7.060;2023-03-21T12:54:32;9.27;;;5.75;;
53781;SDS011;39692;53.114;7.060;2023-03-21T12:57:16;11.27;;;5.95;;
53781;SDS011;39692;53.114;7.060;2023-03-21T12:59:47;10.02;;;6.00;;
53781;SDS011;39692;53.114;7.060;2023-03-21T13:02:24;8.95;;;5.97;;
53781;SDS011;39692;53.114;7.060;2023-03-21T13:04:55;12.20;;;5.60;;
53781;SDS011;39692;53.114;7.060;2023-03-21T13:07:22;10.18;;;5.35;;
53781;SDS011;39692;53.114;7.060;2023-03-21T13:09:49;11.68;;;6.05;;
53781;SDS011;39692;53.114;7.060;2023-03-21T13:15:06;8.50;;;5.70;;
53781;SDS011;39692;53.114;7.060;2023-03-21T13:17:58;8.30;;;5.20;;
53781;SDS011;39692;53.114;7.060;2023-03-21T13:20:24;13.73;;;6.28;;
53781;SDS011;39692;53.114;7.060;2023-03-21T13:22:51;11.07;;;6.22;;
53781;SDS011;39692;53.114;7.060;2023-03-21T13:25:18;11.75;;;6.13;;
53781;SDS011;39692;53.114;7.060;2023-03-21T13:27:59;10.93;;;6.53;;
53781;SDS011;39692;53.114;7.060;2023-03-21T13:30:26;10.18;;;5.47;;
53781;SDS011;39692;53.114;7.060;2023-03-21T13:35:38;14.50;;;7.05;;
53781;SDS011;39692;53.114;7.060;2023-03-21T13:38:19;11.02;;;5.88;;
53781;SDS011;39692;53.114;7.060;2023-03-21T13:40:50;11.05;;;5.60;;
53781;SDS011;39692;53.114;7.060;2023-03-21T13:46:08;11.75;;;5.30;;
53781;SDS011;39692;53.114;7.060;2023-03-21T13:48:42;8.60;;;5.50;;
53781;SDS011;39692;53.114;7.060;2023-03-21T13:51:08;11.77;;;6.85;;
53781;SDS011;39692;53.114;7.060;2023-03-21T13:53:38;10.50;;;5.88;;
53781;SDS011;39692;53.114;7.060;2023-03-21T14:01:10;10.45;;;5.97;;
53781;SDS011;39692;53.114;7.060;2023-03-21T14:03:38;11.15;;;7.10;;
53781;SDS011;39692;53.114;7.060;2023-03-21T14:06:05;9.18;;;5.53;;
53781;SDS011;39692;53.114;7.060;2023-03-21T14:08:31;8.38;;;5.40;;
53781;SDS011;39692;53.114;7.060;2023-03-21T14:10:59;10.85;;;6.20;;
53781;SDS011;39692;53.114;7.060;2023-03-21T14:13:28;11.30;;;5.80;;
53781;SDS011;39692;53.114;7.060;2023-03-21T14:15:58;9.00;;;5.88;;
53781;SDS011;39692;53.114;7.060;2023-03-21T14:18:25;10.48;;;6.63;;
53781;SDS011;39692;53.114;7.060;2023-03-21T14:20:52;11.20;;;6.25;;
53781;SDS011;39692;53.114;7.060;2023-03-21T14:23:19;12.18;;;8.10;;
53781;SDS011;39692;53.114;7.060;2023-03-21T14:25:45;12.48;;;5.95;;
53781;SDS011;39692;53.114;7.060;2023-03-21T14:28:17;10.88;;;6.57;;
53781;SDS011;39692;53.114;7.060;2023-03-21T14:30:44;8.15;;;5.65;;
53781;SDS011;39692;53.114;7.060;2023-03-21T14:35:40;10.68;;;6.75;;
53781;SDS011;39692;53.114;7.060;2023-03-21T14:38:16;11.20;;;6.05;;
53781;SDS011;39692;53.114;7.060;2023-03-21T14:40:51;9.23;;;6.05;;
53781;SDS011;39692;53.114;7.060;2023-03-21T14:43:18;14.50;;;6.53;;
53781;SDS011;39692;53.114;7.060;2023-03-21T14:45:46;10.93;;;6.15;;
53781;SDS011;39692;53.114;7.060;2023-03-21T14:48:13;9.88;;;6.53;;
53781;SDS011;39692;53.114;7.060;2023-03-21T14:50:52;12.32;;;7.90;;
53781;SDS011;39692;53.114;7.060;2023-03-21T14:53:26;11.05;;;6.28;;
53781;SDS011;39692;53.114;7.060;2023-03-21T14:58:29;13.38;;;6.90;;
53781;SDS011;39692;53.114;7.060;2023-03-21T15:01:02;11.32;;;6.55;;
53781;SDS011;39692;53.114;7.060;2023-03-21T15:03:29;10.43;;;6.65;;
53781;SDS011;39692;53.114;7.060;2023-03-21T15:05:55;13.60;;;7.32;;
53781;SDS011;39692;53.114;7.060;2023-03-21T15:08:22;12.38;;;6.40;;
53781;SDS011;39692;53.114;7.060;2023-03-21T15:10:57;9.18;;;6.35;;
53781;SDS011;39692;53.114;7.060;2023-03-21T15:13:57;11.25;;;6.07;;
53781;SDS011;39692;53.114;7.060;2023-03-21T15:16:18;9.43;;;5.72;;
53781;SDS011;39692;53.114;7.060;2023-03-21T15:18:45;14.73;;;7.75;;
53781;SDS011;39692;53.114;7.060;2023-03-21T15:21:13;13.65;;;6.50;;
53781;SDS011;39692;53.114;7.060;2023-03-21T15:23:42;9.85;;;5.88;;
53781;SDS011;39692;53.114;7.060;2023-03-21T15:26:16;9.38;;;6.15;;
53781;SDS011;39692;53.114;7.060;2023-03-21T15:28:45;9.73;;;6.57;;
53781;SDS011;39692;53.114;7.060;2023-03-21T15:31:14;11.73;;;6.55;;
53781;SDS011;39692;53.114;7.060;2023-03-21T15:33:43;11.98;;;7.20;;
53781;SDS011;39692;53.114;7.060;2023-03-21T15:36:09;11.27;;;7.55;;
53781;SDS011;39692;53.114;7.060;2023-03-21T15:38:37;13.27;;;7.45;;
53781;SDS011;39692;53.114;7.060;2023-03-21T15:41:12;9.60;;;6.25;;
53781;SDS011;39692;53.114;7.060;2023-03-21T15:43:41;9.30;;;6.32;;
53781;SDS011;39692;53.114;7.060;2023-03-21T15:46:14;10.95;;;6.93;;
53781;SDS011;39692;53.114;7.060;2023-03-21T15:48:41;11.05;;;6.60;;
53781;SDS011;39692;53.114;7.060;2023-03-21T15:51:10;9.35;;;6.20;;
53781;SDS011;39692;53.114;7.060;2023-03-21T15:53:38;13.00;;;6.32;;
53781;SDS011;39692;53.114;7.060;2023-03-21T15:56:08;8.88;;;6.13;;
53781;SDS011;39692;53.114;7.060;2023-03-21T15:58:41;11.95;;;7.00;;
53781;SDS011;39692;53.114;7.060;2023-03-21T16:01:15;10.73;;;6.90;;
53781;SDS011;39692;53.114;7.060;2023-03-21T16:03:43;10.35;;;5.63;;
53781;SDS011;39692;53.114;7.060;2023-03-21T16:08:37;11.43;;;6.65;;
53781;SDS011;39692;53.114;7.060;2023-03-21T16:11:13;12.25;;;6.50;;
53781;SDS011;39692;53.114;7.060;2023-03-21T16:13:40;8.65;;;6.45;;
53781;SDS011;39692;53.114;7.060;2023-03-21T16:16:09;9.38;;;6.22;;